sensor_id;sensor_type;location;lat;lon;timestamp;pressure;altitude;pressure_sealevel;temperature;humidity
12991;BME280;6560;57.692;11.958;2024-01-30T00:02:24;102243.94;;;24.00;72.30
12991;BME280;6560;57.692;11.958;2024-01-30T00:04:51;102274.88;;;24.29;73.58
12991;BME280;6560;57.692;11.958;2024-01-30T00:07:17;102275.06;;;24.53;72.69
12991;BME280;6560;57.692;11.958;2024-01-30T00:09:46;102274.78;;;23.31;73.56
12991;BME280;6560;57.692;11.958;2024-01-30T00:12:12;102260.00;;;23.41;76.64
12991;BME280;6560;57.692;11.958;2024-01-30T00:14:37;102265.00;;;23.14;78.30
12991;BME280;6560;57.692;11.958;2024-01-30T00:17:03;102263.50;;;24.15;76.51
12991;BME280;6560;57.692;11.958;2024-01-30T00:19:29;102276.63;;;24.27;75.90
12991;BME280;6560;57.692;11.958;2024-01-30T00:21:55;102254.44;;;24.76;71.59
12991;BME280;6560;57.692;11.958;2024-01-30T00:24:20;102262.81;;;24.61;71.75
12991;BME280;6560;57.692;11.958;2024-01-30T00:26:47;102241.59;;;24.08;67.45
12991;BME280;6560;57.692;11.958;2024-01-30T00:29:13;102255.41;;;23.56;71.93
12991;BME280;6560;57.692;11.958;2024-01-30T00:31:44;102252.03;;;22.88;83.30
12991;BME280;6560;57.692;11.958;2024-01-30T00:34:13;102254.94;;;23.47;78.66
12991;BME280;6560;57.692;11.958;2024-01-30T00:36:38;102258.63;;;23.31;75.75
12991;BME280;6560;57.692;11.958;2024-01-30T00:39:04;102244.69;;;23.40;78.84
12991;BME280;6560;57.692;11.958;2024-01-30T00:41:35;102267.00;;;23.94;76.82
12991;BME280;6560;57.692;11.958;2024-01-30T00:44:01;102266.00;;;23.92;76.71
12991;BME280;6560;57.692;11.958;2024-01-30T00:46:26;102269.84;;;24.17;75.73
12991;BME280;6560;57.692;11.958;2024-01-30T00:48:51;102262.53;;;23.94;77.10
12991;BME280;6560;57.692;11.958;2024-01-30T00:51:17;102248.44;;;23.80;75.65
12991;BME280;6560;57.692;11.958;2024-01-30T00:53:42;102261.25;;;23.86;75.99
12991;BME280;6560;57.692;11.958;2024-01-30T00:56:09;102253.13;;;23.11;78.42
12991;BME280;6560;57.692;11.958;2024-01-30T00:58:34;102250.28;;;23.25;81.83
12991;BME280;6560;57.692;11.958;2024-01-30T01:01:01;102248.84;;;23.14;84.03
12991;BME280;6560;57.692;11.958;2024-01-30T01:03:27;102261.78;;;23.40;82.40
12991;BME280;6560;57.692;11.958;2024-01-30T01:05:53;102249.00;;;23.73;80.17
12991;BME280;6560;57.692;11.958;2024-01-30T01:08:23;102246.75;;;24.03;77.62
12991;BME280;6560;57.692;11.958;2024-01-30T01:10:48;102253.66;;;23.77;75.88
12991;BME280;6560;57.692;11.958;2024-01-30T01:13:14;102262.47;;;23.54;80.31
12991;BME280;6560;57.692;11.958;2024-01-30T01:15:43;102251.81;;;23.57;80.20
12991;BME280;6560;57.692;11.958;2024-01-30T01:18:08;102252.63;;;23.55;80.91
12991;BME280;6560;57.692;11.958;2024-01-30T01:20:34;102266.50;;;23.27;81.52
12991;BME280;6560;57.692;11.958;2024-01-30T01:22:59;102242.34;;;23.28;83.82
12991;BME280;6560;57.692;11.958;2024-01-30T01:25:25;102254.09;;;23.30;84.52
12991;BME280;6560;57.692;11.958;2024-01-30T01:27:50;102263.66;;;23.80;82.15
12991;BME280;6560;57.692;11.958;2024-01-30T01:30:18;102277.19;;;24.01;81.12
12991;BME280;6560;57.692;11.958;2024-01-30T01:32:48;102253.75;;;24.59;77.15
12991;BME280;6560;57.692;11.958;2024-01-30T01:35:26;102257.84;;;25.13;72.57
12991;BME280;6560;57.692;11.958;2024-01-30T01:37:58;102273.06;;;24.70;71.35
12991;BME280;6560;57.692;11.958;2024-01-30T01:40:26;102267.22;;;25.00;72.23
12991;BME280;6560;57.692;11.958;2024-01-30T01:42:52;102262.66;;;24.99;71.31
12991;BME280;6560;57.692;11.958;2024-01-30T01:45:19;102263.19;;;24.70;72.62
12991;BME280;6560;57.692;11.958;2024-01-30T01:47:49;102261.06;;;24.41;72.70
12991;BME280;6560;57.692;11.958;2024-01-30T01:50:16;102262.75;;;24.59;68.76
12991;BME280;6560;57.692;11.958;2024-01-30T01:52:47;102264.03;;;23.68;72.57
12991;BME280;6560;57.692;11.958;2024-01-30T01:55:15;102254.66;;;23.79;75.67
12991;BME280;6560;57.692;11.958;2024-01-30T01:57:42;102243.75;;;24.16;76.86
12991;BME280;6560;57.692;11.958;2024-01-30T02:00:08;102258.91;;;23.94;78.13
12991;BME280;6560;57.692;11.958;2024-01-30T02:02:36;102248.41;;;23.42;80.45
12991;BME280;6560;57.692;11.958;2024-01-30T02:07:40;102227.69;;;23.99;75.61
12991;BME280;6560;57.692;11.958;2024-01-30T02:10:08;102225.75;;;23.19;80.15
12991;BME280;6560;57.692;11.958;2024-01-30T02:12:35;102231.72;;;23.31;79.61
12991;BME280;6560;57.692;11.958;2024-01-30T02:15:02;102235.13;;;23.27;78.75
12991;BME280;6560;57.692;11.958;2024-01-30T02:17:28;102224.63;;;22.77;82.84
12991;BME280;6560;57.692;11.958;2024-01-30T02:19:53;102229.16;;;23.15;84.17
12991;BME280;6560;57.692;11.958;2024-01-30T02:22:20;102233.47;;;23.12;83.06
12991;BME280;6560;57.692;11.958;2024-01-30T02:24:46;102242.97;;;23.60;81.22
12991;BME280;6560;57.692;11.958;2024-01-30T02:27:12;102231.16;;;23.19;82.45
12991;BME280;6560;57.692;11.958;2024-01-30T02:29:38;102251.81;;;22.83;78.29
12991;BME280;6560;57.692;11.958;2024-01-30T02:32:04;102250.84;;;23.37;75.52
12991;BME280;6560;57.692;11.958;2024-01-30T02:34:30;102231.09;;;23.55;79.50
12991;BME280;6560;57.692;11.958;2024-01-30T02:36:56;102232.56;;;24.47;77.00
12991;BME280;6560;57.692;11.958;2024-01-30T02:39:21;102236.34;;;24.73;72.66
12991;BME280;6560;57.692;11.958;2024-01-30T02:41:48;102225.97;;;24.20;75.25
12991;BME280;6560;57.692;11.958;2024-01-30T02:44:14;102220.34;;;24.35;74.64
12991;BME280;6560;57.692;11.958;2024-01-30T02:46:39;102219.28;;;24.31;72.43
12991;BME280;6560;57.692;11.958;2024-01-30T02:49:08;102232.00;;;23.37;79.91
12991;BME280;6560;57.692;11.958;2024-01-30T02:51:34;102207.53;;;23.70;77.73
12991;BME280;6560;57.692;11.958;2024-01-30T02:54:01;102227.41;;;23.16;80.31
12991;BME280;6560;57.692;11.958;2024-01-30T02:56:28;102216.50;;;23.50;76.33
12991;BME280;6560;57.692;11.958;2024-01-30T02:58:54;102211.09;;;23.69;79.32
12991;BME280;6560;57.692;11.958;2024-01-30T03:01:20;102197.69;;;23.51;81.91
12991;BME280;6560;57.692;11.958;2024-01-30T03:03:47;102192.09;;;24.06;77.63
12991;BME280;6560;57.692;11.958;2024-01-30T03:06:12;102197.81;;;23.35;84.49
12991;BME280;6560;57.692;11.958;2024-01-30T03:08:42;102203.69;;;23.26;83.19
12991;BME280;6560;57.692;11.958;2024-01-30T03:11:08;102213.41;;;23.80;79.13
12991;BME280;6560;57.692;11.958;2024-01-30T03:13:34;102202.97;;;24.28;77.06
12991;BME280;6560;57.692;11.958;2024-01-30T03:16:01;102207.00;;;24.18;78.20
12991;BME280;6560;57.692;11.958;2024-01-30T03:18:27;102197.50;;;24.47;73.29
12991;BME280;6560;57.692;11.958;2024-01-30T03:20:52;102216.56;;;23.91;74.97
12991;BME280;6560;57.692;11.958;2024-01-30T03:23:19;102206.03;;;23.76;78.27
12991;BME280;6560;57.692;11.958;2024-01-30T03:25:45;102201.81;;;23.83;79.06
12991;BME280;6560;57.692;11.958;2024-01-30T03:28:11;102187.25;;;24.39;75.63
12991;BME280;6560;57.692;11.958;2024-01-30T03:30:36;102170.53;;;24.06;75.37
12991;BME280;6560;57.692;11.958;2024-01-30T03:33:02;102172.56;;;24.53;71.62
12991;BME280;6560;57.692;11.958;2024-01-30T03:35:27;102184.63;;;24.62;71.96
12991;BME280;6560;57.692;11.958;2024-01-30T03:37:54;102182.84;;;24.20;76.23
12991;BME280;6560;57.692;11.958;2024-01-30T03:40:20;102192.97;;;24.26;78.87
12991;BME280;6560;57.692;11.958;2024-01-30T03:42:47;102183.88;;;24.44;74.70
12991;BME280;6560;57.692;11.958;2024-01-30T03:45:13;102160.69;;;23.66;79.63
12991;BME280;6560;57.692;11.958;2024-01-30T03:47:38;102191.31;;;23.68;79.68
12991;BME280;6560;57.692;11.958;2024-01-30T03:50:04;102173.22;;;23.66;79.73
12991;BME280;6560;57.692;11.958;2024-01-30T03:52:30;102199.94;;;23.42;80.71
12991;BME280;6560;57.692;11.958;2024-01-30T03:54:55;102198.66;;;23.72;76.12
12991;BME280;6560;57.692;11.958;2024-01-30T03:57:22;102193.47;;;24.17;78.11
12991;BME280;6560;57.692;11.958;2024-01-30T03:59:47;102183.69;;;24.40;75.29
12991;BME280;6560;57.692;11.958;2024-01-30T04:02:13;102180.34;;;24.25;73.99
12991;BME280;6560;57.692;11.958;2024-01-30T04:04:41;102183.38;;;24.32;70.15
12991;BME280;6560;57.692;11.958;2024-01-30T04:07:06;102186.19;;;23.36;80.37
12991;BME280;6560;57.692;11.958;2024-01-30T04:09:32;102176.09;;;23.90;79.65
12991;BME280;6560;57.692;11.958;2024-01-30T04:11:57;102193.06;;;23.10;80.12
12991;BME280;6560;57.692;11.958;2024-01-30T04:14:23;102174.19;;;22.55;84.56
12991;BME280;6560;57.692;11.958;2024-01-30T04:16:50;102167.16;;;23.51;82.66
12991;BME280;6560;57.692;11.958;2024-01-30T04:19:17;102177.22;;;23.95;72.83
12991;BME280;6560;57.692;11.958;2024-01-30T04:21:43;102168.28;;;24.16;74.43
12991;BME280;6560;57.692;11.958;2024-01-30T04:24:10;102172.72;;;25.47;68.53
12991;BME280;6560;57.692;11.958;2024-01-30T04:26:36;102182.97;;;25.09;68.06
12991;BME280;6560;57.692;11.958;2024-01-30T04:29:02;102176.25;;;24.13;70.77
12991;BME280;6560;57.692;11.958;2024-01-30T04:31:28;102201.25;;;24.30;74.69
12991;BME280;6560;57.692;11.958;2024-01-30T04:33:53;102204.13;;;24.55;74.71
12991;BME280;6560;57.692;11.958;2024-01-30T04:36:19;102204.25;;;24.58;74.38
12991;BME280;6560;57.692;11.958;2024-01-30T04:38:45;102184.72;;;24.86;73.53
12991;BME280;6560;57.692;11.958;2024-01-30T04:41:12;102192.69;;;24.83;72.49
12991;BME280;6560;57.692;11.958;2024-01-30T04:43:38;102206.50;;;25.58;69.13
12991;BME280;6560;57.692;11.958;2024-01-30T04:46:04;102198.41;;;25.83;66.54
12991;BME280;6560;57.692;11.958;2024-01-30T04:48:30;102185.69;;;24.66;65.45
12991;BME280;6560;57.692;11.958;2024-01-30T04:50:55;102189.53;;;24.50;70.84
12991;BME280;6560;57.692;11.958;2024-01-30T04:53:21;102178.38;;;24.41;74.52
12991;BME280;6560;57.692;11.958;2024-01-30T04:55:48;102179.34;;;25.09;70.62
12991;BME280;6560;57.692;11.958;2024-01-30T04:58:13;102171.44;;;23.86;70.02
12991;BME280;6560;57.692;11.958;2024-01-30T05:00:40;102156.66;;;23.57;77.71
12991;BME280;6560;57.692;11.958;2024-01-30T05:03:05;102174.63;;;23.77;74.54
12991;BME280;6560;57.692;11.958;2024-01-30T05:05:31;102164.06;;;23.81;80.66
12991;BME280;6560;57.692;11.958;2024-01-30T05:07:56;102176.75;;;23.45;81.04
12991;BME280;6560;57.692;11.958;2024-01-30T05:10:22;102164.03;;;24.01;78.69
12991;BME280;6560;57.692;11.958;2024-01-30T05:12:48;102166.31;;;23.92;72.68
12991;BME280;6560;57.692;11.958;2024-01-30T05:15:15;102169.84;;;23.91;74.55
12991;BME280;6560;57.692;11.958;2024-01-30T05:17:42;102177.53;;;23.81;73.91
12991;BME280;6560;57.692;11.958;2024-01-30T05:20:08;102182.34;;;23.31;75.05
12991;BME280;6560;57.692;11.958;2024-01-30T05:22:34;102189.44;;;23.87;72.56
12991;BME280;6560;57.692;11.958;2024-01-30T05:25:01;102177.19;;;23.16;77.47
12991;BME280;6560;57.692;11.958;2024-01-30T05:27:26;102164.94;;;23.03;82.52
12991;BME280;6560;57.692;11.958;2024-01-30T05:29:52;102169.13;;;23.74;80.73
12991;BME280;6560;57.692;11.958;2024-01-30T05:32:18;102159.41;;;23.20;81.51
12991;BME280;6560;57.692;11.958;2024-01-30T05:34:46;102148.28;;;23.12;82.64
12991;BME280;6560;57.692;11.958;2024-01-30T05:37:11;102163.28;;;22.35;90.34
12991;BME280;6560;57.692;11.958;2024-01-30T05:39:39;102153.91;;;22.09;90.85
12991;BME280;6560;57.692;11.958;2024-01-30T05:42:05;102152.31;;;22.48;95.94
12991;BME280;6560;57.692;11.958;2024-01-30T05:44:31;102151.59;;;22.87;85.73
12991;BME280;6560;57.692;11.958;2024-01-30T05:46:57;102163.38;;;23.09;86.25
12991;BME280;6560;57.692;11.958;2024-01-30T05:49:25;102147.53;;;22.60;87.02
12991;BME280;6560;57.692;11.958;2024-01-30T05:51:51;102143.72;;;22.92;87.23
12991;BME280;6560;57.692;11.958;2024-01-30T05:54:16;102152.41;;;23.62;82.78
12991;BME280;6560;57.692;11.958;2024-01-30T05:56:43;102151.00;;;22.75;86.51
12991;BME280;6560;57.692;11.958;2024-01-30T05:59:08;102155.75;;;23.56;81.04
12991;BME280;6560;57.692;11.958;2024-01-30T06:01:34;102134.38;;;24.01;76.41
12991;BME280;6560;57.692;11.958;2024-01-30T06:04:01;102141.34;;;24.37;73.15
12991;BME280;6560;57.692;11.958;2024-01-30T06:06:27;102120.44;;;23.90;75.07
12991;BME280;6560;57.692;11.958;2024-01-30T06:08:52;102133.69;;;24.70;71.04
12991;BME280;6560;57.692;11.958;2024-01-30T06:11:21;102135.44;;;23.64;76.92
12991;BME280;6560;57.692;11.958;2024-01-30T06:13:46;102134.53;;;23.25;74.55
12991;BME280;6560;57.692;11.958;2024-01-30T06:16:12;102146.97;;;24.43;74.07
12991;BME280;6560;57.692;11.958;2024-01-30T06:18:40;102149.44;;;24.37;72.79
12991;BME280;6560;57.692;11.958;2024-01-30T06:21:05;102132.13;;;24.11;73.32
12991;BME280;6560;57.692;11.958;2024-01-30T06:23:31;102127.38;;;23.64;75.85
12991;BME280;6560;57.692;11.958;2024-01-30T06:25:57;102124.78;;;23.08;79.04
12991;BME280;6560;57.692;11.958;2024-01-30T06:28:22;102126.06;;;23.55;80.04
12991;BME280;6560;57.692;11.958;2024-01-30T06:30:48;102138.22;;;23.47;75.50
12991;BME280;6560;57.692;11.958;2024-01-30T06:33:14;102126.59;;;23.67;78.89
12991;BME280;6560;57.692;11.958;2024-01-30T06:35:40;102130.72;;;23.59;77.50
12991;BME280;6560;57.692;11.958;2024-01-30T06:38:06;102127.22;;;22.84;84.73
12991;BME280;6560;57.692;11.958;2024-01-30T06:40:35;102126.56;;;24.28;75.62
12991;BME280;6560;57.692;11.958;2024-01-30T06:43:01;102131.63;;;24.41;74.02
12991;BME280;6560;57.692;11.958;2024-01-30T06:45:26;102109.66;;;23.31;82.02
12991;BME280;6560;57.692;11.958;2024-01-30T06:47:52;102123.69;;;22.85;83.16
12991;BME280;6560;57.692;11.958;2024-01-30T06:50:18;102118.63;;;23.30;82.43
12991;BME280;6560;57.692;11.958;2024-01-30T06:52:44;102106.84;;;23.28;83.42
12991;BME280;6560;57.692;11.958;2024-01-30T06:55:10;102084.13;;;23.21;85.48
12991;BME280;6560;57.692;11.958;2024-01-30T06:57:36;102099.72;;;22.72;86.12
12991;BME280;6560;57.692;11.958;2024-01-30T07:00:03;102103.09;;;22.31;92.09
12991;BME280;6560;57.692;11.958;2024-01-30T07:02:29;102100.72;;;22.19;100.00
12991;BME280;6560;57.692;11.958;2024-01-30T07:04:56;102092.41;;;23.07;89.16
12991;BME280;6560;57.692;11.958;2024-01-30T07:07:22;102086.41;;;21.85;94.55
12991;BME280;6560;57.692;11.958;2024-01-30T07:09:48;102083.31;;;22.11;100.00
12991;BME280;6560;57.692;11.958;2024-01-30T07:12:16;102066.66;;;21.67;100.00
12991;BME280;6560;57.692;11.958;2024-01-30T07:14:41;102069.91;;;21.95;90.80
12991;BME280;6560;57.692;11.958;2024-01-30T07:17:07;102070.59;;;21.91;100.00
12991;BME280;6560;57.692;11.958;2024-01-30T07:19:33;102067.75;;;21.70;100.00
12991;BME280;6560;57.692;11.958;2024-01-30T07:22:01;102095.53;;;22.96;97.09
12991;BME280;6560;57.692;11.958;2024-01-30T07:24:27;102094.53;;;23.33;89.49
12991;BME280;6560;57.692;11.958;2024-01-30T07:26:53;102094.72;;;22.80;91.29
12991;BME280;6560;57.692;11.958;2024-01-30T07:29:19;102074.31;;;23.02;90.71
12991;BME280;6560;57.692;11.958;2024-01-30T07:31:45;102093.06;;;22.82;90.26
12991;BME280;6560;57.692;11.958;2024-01-30T07:34:11;102098.16;;;22.95;88.85
12991;BME280;6560;57.692;11.958;2024-01-30T07:36:37;102095.16;;;21.47;98.50
12991;BME280;6560;57.692;11.958;2024-01-30T07:39:03;102057.66;;;22.00;97.18
12991;BME280;6560;57.692;11.958;2024-01-30T07:41:29;102074.06;;;22.06;100.00
12991;BME280;6560;57.692;11.958;2024-01-30T07:43:55;102079.91;;;22.15;100.00
12991;BME280;6560;57.692;11.958;2024-01-30T07:46:20;102066.06;;;22.43;99.60
12991;BME280;6560;57.692;11.958;2024-01-30T07:48:46;102080.16;;;21.34;100.00
12991;BME280;6560;57.692;11.958;2024-01-30T07:51:12;102069.91;;;21.95;100.00
12991;BME280;6560;57.692;11.958;2024-01-30T07:53:37;102061.84;;;22.48;97.98
12991;BME280;6560;57.692;11.958;2024-01-30T07:56:05;102069.53;;;21.03;100.00
12991;BME280;6560;57.692;11.958;2024-01-30T07:58:31;102067.91;;;22.26;100.00
12991;BME280;6560;57.692;11.958;2024-01-30T08:01:00;102059.16;;;21.77;100.00
12991;BME280;6560;57.692;11.958;2024-01-30T08:03:28;102053.69;;;22.47;100.00
12991;BME280;6560;57.692;11.958;2024-01-30T08:05:57;102032.72;;;22.40;100.00
12991;BME280;6560;57.692;11.958;2024-01-30T08:08:22;101993.94;;;22.15;100.00
12991;BME280;6560;57.692;11.958;2024-01-30T08:10:48;101973.78;;;20.68;100.00
12991;BME280;6560;57.692;11.958;2024-01-30T08:13:15;101996.59;;;21.96;100.00
12991;BME280;6560;57.692;11.958;2024-01-30T08:15:41;102028.78;;;21.11;100.00
12991;BME280;6560;57.692;11.958;2024-01-30T08:18:06;102031.38;;;21.95;100.00
12991;BME280;6560;57.692;11.958;2024-01-30T08:20:32;102021.22;;;22.42;100.00
12991;BME280;6560;57.692;11.958;2024-01-30T08:22:58;102028.34;;;22.79;100.00
12991;BME280;6560;57.692;11.958;2024-01-30T08:25:25;102017.88;;;23.25;100.00
12991;BME280;6560;57.692;11.958;2024-01-30T08:27:51;102000.84;;;20.73;100.00
12991;BME280;6560;57.692;11.958;2024-01-30T08:30:16;102024.94;;;21.05;100.00
12991;BME280;6560;57.692;11.958;2024-01-30T08:32:43;102016.59;;;21.33;100.00
12991;BME280;6560;57.692;11.958;2024-01-30T08:35:08;102015.56;;;20.49;100.00
12991;BME280;6560;57.692;11.958;2024-01-30T08:37:34;102025.22;;;21.79;100.00
12991;BME280;6560;57.692;11.958;2024-01-30T08:40:00;102033.38;;;21.45;100.00
12991;BME280;6560;57.692;11.958;2024-01-30T08:42:27;102028.00;;;22.53;100.00
12991;BME280;6560;57.692;11.958;2024-01-30T08:44:53;102029.66;;;22.69;100.00
12991;BME280;6560;57.692;11.958;2024-01-30T08:47:19;102009.41;;;22.58;100.00
12991;BME280;6560;57.692;11.958;2024-01-30T08:49:45;102032.53;;;23.31;100.00
12991;BME280;6560;57.692;11.958;2024-01-30T08:52:10;102026.34;;;23.53;100.00
12991;BME280;6560;57.692;11.958;2024-01-30T08:54:36;102027.47;;;23.58;98.14
12991;BME280;6560;57.692;11.958;2024-01-30T08:57:03;102014.63;;;24.37;97.20
12991;BME280;6560;57.692;11.958;2024-01-30T08:59:30;102022.16;;;23.20;100.00
12991;BME280;6560;57.692;11.958;2024-01-30T09:01:56;102011.84;;;23.10;100.00
12991;BME280;6560;57.692;11.958;2024-01-30T09:04:24;102001.88;;;23.28;100.00
12991;BME280;6560;57.692;11.958;2024-01-30T09:06:50;101976.69;;;23.67;100.00
12991;BME280;6560;57.692;11.958;2024-01-30T09:09:17;102004.91;;;23.15;100.00
12991;BME280;6560;57.692;11.958;2024-01-30T09:11:45;101989.09;;;23.22;100.00
12991;BME280;6560;57.692;11.958;2024-01-30T09:14:11;102005.59;;;22.72;100.00
12991;BME280;6560;57.692;11.958;2024-01-30T09:16:37;101997.94;;;23.20;100.00
12991;BME280;6560;57.692;11.958;2024-01-30T09:19:04;102000.06;;;22.31;100.00
12991;BME280;6560;57.692;11.958;2024-01-30T09:21:32;101999.03;;;23.25;100.00
12991;BME280;6560;57.692;11.958;2024-01-30T09:24:02;101996.59;;;23.50;100.00
12991;BME280;6560;57.692;11.958;2024-01-30T09:26:32;101998.03;;;23.02;100.00
12991;BME280;6560;57.692;11.958;2024-01-30T09:28:58;101995.75;;;23.72;100.00
12991;BME280;6560;57.692;11.958;2024-01-30T09:31:24;101986.25;;;23.19;94.94
12991;BME280;6560;57.692;11.958;2024-01-30T09:33:49;102000.72;;;24.27;98.37
12991;BME280;6560;57.692;11.958;2024-01-30T09:36:16;101990.88;;;24.51;91.18
12991;BME280;6560;57.692;11.958;2024-01-30T09:38:43;101983.91;;;24.11;88.09
12991;BME280;6560;57.692;11.958;2024-01-30T09:41:09;101971.59;;;24.40;87.62
12991;BME280;6560;57.692;11.958;2024-01-30T09:43:37;101980.16;;;23.86;84.00
12991;BME280;6560;57.692;11.958;2024-01-30T09:46:04;101981.03;;;24.51;88.88
12991;BME280;6560;57.692;11.958;2024-01-30T09:48:37;101980.25;;;24.55;87.81
12991;BME280;6560;57.692;11.958;2024-01-30T09:51:03;101973.91;;;24.53;86.77
12991;BME280;6560;57.692;11.958;2024-01-30T09:53:30;101980.03;;;24.05;85.18
12991;BME280;6560;57.692;11.958;2024-01-30T09:55:57;101944.97;;;23.60;95.30
12991;BME280;6560;57.692;11.958;2024-01-30T09:58:23;101972.41;;;23.72;93.91
12991;BME280;6560;57.692;11.958;2024-01-30T10:00:49;101974.00;;;24.56;89.70
12991;BME280;6560;57.692;11.958;2024-01-30T10:03:14;101980.00;;;24.48;89.10
12991;BME280;6560;57.692;11.958;2024-01-30T10:05:40;101975.50;;;24.48;84.12
12991;BME280;6560;57.692;11.958;2024-01-30T10:08:07;101978.59;;;24.83;84.11
12991;BME280;6560;57.692;11.958;2024-01-30T10:10:36;101993.59;;;24.75;83.08
12991;BME280;6560;57.692;11.958;2024-01-30T10:13:02;101999.97;;;24.77;84.03
12991;BME280;6560;57.692;11.958;2024-01-30T10:15:30;102000.09;;;24.80;85.22
12991;BME280;6560;57.692;11.958;2024-01-30T10:17:56;101989.25;;;25.02;83.85
12991;BME280;6560;57.692;11.958;2024-01-30T10:20:21;101987.78;;;24.88;83.07
12991;BME280;6560;57.692;11.958;2024-01-30T10:22:48;101979.47;;;23.48;91.01
12991;BME280;6560;57.692;11.958;2024-01-30T10:25:14;101989.09;;;24.75;88.41
12991;BME280;6560;57.692;11.958;2024-01-30T10:27:40;102008.00;;;24.51;84.18
12991;BME280;6560;57.692;11.958;2024-01-30T10:30:06;101996.38;;;24.09;92.82
12991;BME280;6560;57.692;11.958;2024-01-30T10:32:33;102002.94;;;24.16;91.38
12991;BME280;6560;57.692;11.958;2024-01-30T10:34:58;101993.25;;;24.19;95.68
12991;BME280;6560;57.692;11.958;2024-01-30T10:37:25;101992.19;;;24.38;89.80
12991;BME280;6560;57.692;11.958;2024-01-30T10:39:55;101987.00;;;24.67;89.06
12991;BME280;6560;57.692;11.958;2024-01-30T10:42:26;101992.16;;;25.08;81.33
12991;BME280;6560;57.692;11.958;2024-01-30T10:45:08;101972.78;;;24.02;96.75
12991;BME280;6560;57.692;11.958;2024-01-30T10:47:35;101979.72;;;23.97;89.36
12991;BME280;6560;57.692;11.958;2024-01-30T10:50:04;101984.78;;;24.33;91.74
12991;BME280;6560;57.692;11.958;2024-01-30T10:52:31;101966.91;;;24.35;88.95
12991;BME280;6560;57.692;11.958;2024-01-30T10:54:58;101957.84;;;25.04;88.73
12991;BME280;6560;57.692;11.958;2024-01-30T10:57:27;101933.22;;;24.71;84.80
12991;BME280;6560;57.692;11.958;2024-01-30T10:59:56;101941.00;;;23.11;99.39
12991;BME280;6560;57.692;11.958;2024-01-30T11:02:23;101921.97;;;22.85;100.00
12991;BME280;6560;57.692;11.958;2024-01-30T11:04:49;101946.72;;;23.39;100.00
12991;BME280;6560;57.692;11.958;2024-01-30T11:07:16;101912.28;;;22.70;100.00
12991;BME280;6560;57.692;11.958;2024-01-30T11:10:00;101925.66;;;22.10;100.00
12991;BME280;6560;57.692;11.958;2024-01-30T11:12:30;101903.38;;;21.58;100.00
12991;BME280;6560;57.692;11.958;2024-01-30T11:15:16;101926.25;;;21.87;100.00
12991;BME280;6560;57.692;11.958;2024-01-30T11:17:50;101920.00;;;22.04;100.00
12991;BME280;6560;57.692;11.958;2024-01-30T11:20:26;101905.78;;;21.52;100.00
12991;BME280;6560;57.692;11.958;2024-01-30T11:22:53;101881.38;;;21.30;100.00
12991;BME280;6560;57.692;11.958;2024-01-30T11:25:21;101877.25;;;21.36;100.00
12991;BME280;6560;57.692;11.958;2024-01-30T11:27:54;101884.56;;;20.71;100.00
12991;BME280;6560;57.692;11.958;2024-01-30T11:33:06;101870.94;;;21.91;100.00
12991;BME280;6560;57.692;11.958;2024-01-30T11:35:38;101888.72;;;22.25;100.00
12991;BME280;6560;57.692;11.958;2024-01-30T11:38:07;101884.63;;;21.77;100.00
12991;BME280;6560;57.692;11.958;2024-01-30T11:40:35;101882.16;;;21.82;100.00
12991;BME280;6560;57.692;11.958;2024-01-30T11:43:02;101878.50;;;23.38;100.00
12991;BME280;6560;57.692;11.958;2024-01-30T11:45:30;101861.19;;;21.56;100.00
12991;BME280;6560;57.692;11.958;2024-01-30T11:47:57;101855.34;;;22.40;100.00
12991;BME280;6560;57.692;11.958;2024-01-30T11:50:44;101868.81;;;22.80;100.00
12991;BME280;6560;57.692;11.958;2024-01-30T11:53:11;101883.28;;;23.02;100.00
12991;BME280;6560;57.692;11.958;2024-01-30T11:55:37;101867.78;;;23.83;100.00
12991;BME280;6560;57.692;11.958;2024-01-30T11:58:04;101865.09;;;23.83;100.00
12991;BME280;6560;57.692;11.958;2024-01-30T12:00:30;101863.25;;;24.04;100.00
12991;BME280;6560;57.692;11.958;2024-01-30T12:02:59;101862.38;;;24.28;100.00
12991;BME280;6560;57.692;11.958;2024-01-30T12:05:26;101851.88;;;23.24;100.00
12991;BME280;6560;57.692;11.958;2024-01-30T12:07:54;101852.19;;;23.52;100.00
12991;BME280;6560;57.692;11.958;2024-01-30T12:10:21;101850.59;;;24.49;100.00
12991;BME280;6560;57.692;11.958;2024-01-30T12:12:48;101836.69;;;23.91;100.00
12991;BME280;6560;57.692;11.958;2024-01-30T12:15:15;101829.59;;;24.17;100.00
12991;BME280;6560;57.692;11.958;2024-01-30T12:17:41;101824.41;;;24.96;99.15
12991;BME280;6560;57.692;11.958;2024-01-30T12:20:18;101815.59;;;24.76;99.17
12991;BME280;6560;57.692;11.958;2024-01-30T12:22:45;101810.75;;;25.73;93.68
12991;BME280;6560;57.692;11.958;2024-01-30T12:25:16;101806.94;;;25.38;88.44
12991;BME280;6560;57.692;11.958;2024-01-30T12:27:44;101799.81;;;24.87;95.54
12991;BME280;6560;57.692;11.958;2024-01-30T12:30:11;101808.06;;;24.41;98.85
12991;BME280;6560;57.692;11.958;2024-01-30T12:32:45;101795.66;;;23.98;100.00
12991;BME280;6560;57.692;11.958;2024-01-30T12:35:12;101800.34;;;23.80;100.00
12991;BME280;6560;57.692;11.958;2024-01-30T12:37:39;101796.28;;;24.64;100.00
12991;BME280;6560;57.692;11.958;2024-01-30T12:40:08;101783.59;;;24.61;100.00
12991;BME280;6560;57.692;11.958;2024-01-30T12:42:35;101783.16;;;24.48;100.00
12991;BME280;6560;57.692;11.958;2024-01-30T12:45:05;101794.06;;;24.27;100.00
12991;BME280;6560;57.692;11.958;2024-01-30T12:47:30;101786.69;;;24.72;100.00
12991;BME280;6560;57.692;11.958;2024-01-30T12:49:58;101788.25;;;24.16;100.00
12991;BME280;6560;57.692;11.958;2024-01-30T12:52:24;101786.94;;;24.29;100.00